sensor_id;sensor_type;location;lat;lon;timestamp;P1;durP1;ratioP1;P2;durP2;ratioP2
40981;SDS011;26708;50.304;19.028;2022-07-29T00:02:43;6.00;;;2.88;;
40981;SDS011;26708;50.304;19.028;2022-07-29T00:05:43;7.57;;;2.63;;
40981;SDS011;26708;50.304;19.028;2022-07-29T00:08:44;8.40;;;2.28;;
40981;SDS011;26708;50.304;19.028;2022-07-29T00:11:46;6.03;;;2.03;;
40981;SDS011;26708;50.304;19.028;2022-07-29T00:14:47;5.80;;;2.15;;
40981;SDS011;26708;50.304;19.028;2022-07-29T00:17:48;5.47;;;2.05;;
40981;SDS011;26708;50.304;19.028;2022-07-29T00:20:49;4.55;;;2.30;;
40981;SDS011;26708;50.304;19.028;2022-07-29T00:23:49;5.07;;;1.90;;
40981;SDS011;26708;50.304;19.028;2022-07-29T00:26:50;7.05;;;1.85;;
40981;SDS011;26708;50.304;19.028;2022-07-29T00:29:51;7.13;;;1.90;;
40981;SDS011;26708;50.304;19.028;2022-07-29T00:32:52;7.32;;;2.00;;
40981;SDS011;26708;50.304;19.028;2022-07-29T00:35:52;4.13;;;2.10;;
40981;SDS011;26708;50.304;19.028;2022-07-29T00:38:53;2.90;;;1.92;;
40981;SDS011;26708;50.304;19.028;2022-07-29T00:41:54;4.82;;;1.70;;
40981;SDS011;26708;50.304;19.028;2022-07-29T00:44:55;5.85;;;2.08;;
40981;SDS011;26708;50.304;19.028;2022-07-29T00:47:55;11.32;;;1.67;;
40981;SDS011;26708;50.304;19.028;2022-07-29T00:50:57;6.10;;;1.65;;
40981;SDS011;26708;50.304;19.028;2022-07-29T00:53:59;3.58;;;1.60;;
40981;SDS011;26708;50.304;19.028;2022-07-29T00:57:01;2.88;;;1.48;;
40981;SDS011;26708;50.304;19.028;2022-07-29T01:00:06;5.28;;;1.40;;
40981;SDS011;26708;50.304;19.028;2022-07-29T01:03:09;6.32;;;1.67;;
40981;SDS011;26708;50.304;19.028;2022-07-29T01:06:10;4.00;;;1.77;;
40981;SDS011;26708;50.304;19.028;2022-07-29T01:09:10;5.97;;;1.80;;
40981;SDS011;26708;50.304;19.028;2022-07-29T01:12:13;6.30;;;1.63;;
40981;SDS011;26708;50.304;19.028;2022-07-29T01:15:17;8.95;;;1.30;;
40981;SDS011;26708;50.304;19.028;2022-07-29T01:18:32;4.53;;;1.50;;
40981;SDS011;26708;50.304;19.028;2022-07-29T01:32:01;5.20;;;1.40;;
40981;SDS011;26708;50.304;19.028;2022-07-29T01:35:06;5.07;;;1.50;;
40981;SDS011;26708;50.304;19.028;2022-07-29T01:41:17;4.47;;;1.30;;
40981;SDS011;26708;50.304;19.028;2022-07-29T01:44:22;2.28;;;1.13;;
40981;SDS011;26708;50.304;19.028;2022-07-29T01:51:18;4.82;;;1.50;;
40981;SDS011;26708;50.304;19.028;2022-07-29T01:54:30;5.43;;;1.38;;
40981;SDS011;26708;50.304;19.028;2022-07-29T01:57:46;5.68;;;1.75;;
40981;SDS011;26708;50.304;19.028;2022-07-29T02:00:51;4.20;;;1.40;;
40981;SDS011;26708;50.304;19.028;2022-07-29T02:03:54;5.15;;;1.23;;
40981;SDS011;26708;50.304;19.028;2022-07-29T02:07:00;4.00;;;1.38;;
40981;SDS011;26708;50.304;19.028;2022-07-29T02:10:04;2.28;;;1.10;;
40981;SDS011;26708;50.304;19.028;2022-07-29T02:13:07;6.88;;;1.30;;
40981;SDS011;26708;50.304;19.028;2022-07-29T02:16:11;4.33;;;1.20;;
40981;SDS011;26708;50.304;19.028;2022-07-29T02:19:12;3.67;;;1.27;;
40981;SDS011;26708;50.304;19.028;2022-07-29T02:22:16;7.18;;;1.30;;
40981;SDS011;26708;50.304;19.028;2022-07-29T02:25:18;2.10;;;1.30;;
40981;SDS011;26708;50.304;19.028;2022-07-29T02:28:22;3.47;;;1.10;;
40981;SDS011;26708;50.304;19.028;2022-07-29T02:31:28;1.80;;;1.07;;
40981;SDS011;26708;50.304;19.028;2022-07-29T02:34:32;3.13;;;1.30;;
40981;SDS011;26708;50.304;19.028;2022-07-29T02:37:35;5.88;;;1.20;;
40981;SDS011;26708;50.304;19.028;2022-07-29T02:40:37;3.42;;;1.08;;
40981;SDS011;26708;50.304;19.028;2022-07-29T02:43:40;3.45;;;1.35;;
40981;SDS011;26708;50.304;19.028;2022-07-29T02:46:49;3.65;;;1.10;;
40981;SDS011;26708;50.304;19.028;2022-07-29T02:49:57;7.03;;;1.50;;
40981;SDS011;26708;50.304;19.028;2022-07-29T02:53:11;4.80;;;1.25;;
40981;SDS011;26708;50.304;19.028;2022-07-29T02:56:16;2.10;;;1.00;;
40981;SDS011;26708;50.304;19.028;2022-07-29T02:59:24;3.75;;;1.15;;
40981;SDS011;26708;50.304;19.028;2022-07-29T03:02:27;2.38;;;1.10;;
40981;SDS011;26708;50.304;19.028;2022-07-29T03:05:32;2.22;;;0.93;;
40981;SDS011;26708;50.304;19.028;2022-07-29T03:08:35;5.80;;;1.60;;
40981;SDS011;26708;50.304;19.028;2022-07-29T03:11:36;3.58;;;1.65;;
40981;SDS011;26708;50.304;19.028;2022-07-29T03:14:39;3.88;;;1.48;;
40981;SDS011;26708;50.304;19.028;2022-07-29T03:17:39;3.00;;;1.50;;
40981;SDS011;26708;50.304;19.028;2022-07-29T03:20:41;3.90;;;1.40;;
40981;SDS011;26708;50.304;19.028;2022-07-29T03:23:45;2.38;;;1.23;;
40981;SDS011;26708;50.304;19.028;2022-07-29T03:26:46;2.15;;;1.15;;
40981;SDS011;26708;50.304;19.028;2022-07-29T03:29:46;4.63;;;1.02;;
40981;SDS011;26708;50.304;19.028;2022-07-29T03:32:47;6.55;;;0.95;;
40981;SDS011;26708;50.304;19.028;2022-07-29T03:35:49;4.20;;;1.20;;
40981;SDS011;26708;50.304;19.028;2022-07-29T03:38:50;3.60;;;1.00;;
40981;SDS011;26708;50.304;19.028;2022-07-29T03:41:52;2.35;;;1.15;;
40981;SDS011;26708;50.304;19.028;2022-07-29T03:44:55;2.08;;;1.17;;
40981;SDS011;26708;50.304;19.028;2022-07-29T03:48:02;3.60;;;1.20;;
40981;SDS011;26708;50.304;19.028;2022-07-29T03:51:07;3.35;;;1.10;;
40981;SDS011;26708;50.304;19.028;2022-07-29T03:54:08;2.90;;;1.30;;
40981;SDS011;26708;50.304;19.028;2022-07-29T03:57:09;8.68;;;1.23;;
40981;SDS011;26708;50.304;19.028;2022-07-29T04:00:11;2.22;;;1.05;;
40981;SDS011;26708;50.304;19.028;2022-07-29T04:03:12;2.45;;;0.93;;
40981;SDS011;26708;50.304;19.028;2022-07-29T04:06:14;2.50;;;1.10;;
40981;SDS011;26708;50.304;19.028;2022-07-29T04:09:14;3.10;;;1.25;;
40981;SDS011;26708;50.304;19.028;2022-07-29T04:12:15;3.95;;;1.42;;
40981;SDS011;26708;50.304;19.028;2022-07-29T04:15:16;4.93;;;1.15;;
40981;SDS011;26708;50.304;19.028;2022-07-29T04:18:16;3.35;;;1.10;;
40981;SDS011;26708;50.304;19.028;2022-07-29T04:21:17;6.18;;;1.08;;
40981;SDS011;26708;50.304;19.028;2022-07-29T04:24:18;3.80;;;1.08;;
40981;SDS011;26708;50.304;19.028;2022-07-29T04:27:18;3.30;;;1.30;;
40981;SDS011;26708;50.304;19.028;2022-07-29T04:30:19;2.40;;;1.30;;
40981;SDS011;26708;50.304;19.028;2022-07-29T04:33:19;6.50;;;1.08;;
40981;SDS011;26708;50.304;19.028;2022-07-29T04:36:20;2.67;;;1.05;;
40981;SDS011;26708;50.304;19.028;2022-07-29T04:39:21;6.68;;;1.33;;
40981;SDS011;26708;50.304;19.028;2022-07-29T04:42:22;5.45;;;1.10;;
40981;SDS011;26708;50.304;19.028;2022-07-29T04:45:22;5.57;;;1.17;;
40981;SDS011;26708;50.304;19.028;2022-07-29T04:48:23;6.30;;;1.00;;
40981;SDS011;26708;50.304;19.028;2022-07-29T04:51:24;1.83;;;1.20;;
40981;SDS011;26708;50.304;19.028;2022-07-29T04:54:24;3.28;;;1.15;;
40981;SDS011;26708;50.304;19.028;2022-07-29T04:57:25;6.43;;;1.05;;
40981;SDS011;26708;50.304;19.028;2022-07-29T05:00:26;4.30;;;1.20;;
40981;SDS011;26708;50.304;19.028;2022-07-29T05:03:26;6.00;;;1.30;;
40981;SDS011;26708;50.304;19.028;2022-07-29T05:06:27;6.90;;;1.25;;
40981;SDS011;26708;50.304;19.028;2022-07-29T05:09:28;7.85;;;1.20;;
40981;SDS011;26708;50.304;19.028;2022-07-29T05:12:28;1.80;;;1.00;;
40981;SDS011;26708;50.304;19.028;2022-07-29T05:15:29;7.88;;;1.52;;
40981;SDS011;26708;50.304;19.028;2022-07-29T05:18:30;6.93;;;1.55;;
40981;SDS011;26708;50.304;19.028;2022-07-29T05:21:30;6.82;;;1.38;;
40981;SDS011;26708;50.304;19.028;2022-07-29T05:24:31;6.13;;;1.20;;
40981;SDS011;26708;50.304;19.028;2022-07-29T05:27:32;8.60;;;1.35;;
40981;SDS011;26708;50.304;19.028;2022-07-29T05:30:33;5.10;;;1.40;;
40981;SDS011;26708;50.304;19.028;2022-07-29T05:33:33;3.45;;;1.23;;
40981;SDS011;26708;50.304;19.028;2022-07-29T05:36:34;3.70;;;1.25;;
40981;SDS011;26708;50.304;19.028;2022-07-29T05:39:35;4.03;;;1.15;;
40981;SDS011;26708;50.304;19.028;2022-07-29T05:42:35;8.60;;;1.55;;
40981;SDS011;26708;50.304;19.028;2022-07-29T05:45:38;6.88;;;1.60;;
40981;SDS011;26708;50.304;19.028;2022-07-29T05:48:39;6.53;;;1.30;;
40981;SDS011;26708;50.304;19.028;2022-07-29T05:51:40;4.65;;;1.40;;
40981;SDS011;26708;50.304;19.028;2022-07-29T05:54:40;5.85;;;1.20;;
40981;SDS011;26708;50.304;19.028;2022-07-29T05:57:41;6.10;;;1.67;;
40981;SDS011;26708;50.304;19.028;2022-07-29T06:00:43;6.10;;;1.27;;
40981;SDS011;26708;50.304;19.028;2022-07-29T06:03:44;4.20;;;1.42;;
40981;SDS011;26708;50.304;19.028;2022-07-29T06:06:45;5.57;;;1.40;;
40981;SDS011;26708;50.304;19.028;2022-07-29T06:09:46;1.40;;;1.20;;
40981;SDS011;26708;50.304;19.028;2022-07-29T06:12:47;8.65;;;1.60;;
40981;SDS011;26708;50.304;19.028;2022-07-29T06:15:47;4.22;;;1.40;;
40981;SDS011;26708;50.304;19.028;2022-07-29T06:18:48;7.63;;;1.40;;
40981;SDS011;26708;50.304;19.028;2022-07-29T06:21:49;5.28;;;1.48;;
40981;SDS011;26708;50.304;19.028;2022-07-29T06:24:50;5.18;;;1.30;;
40981;SDS011;26708;50.304;19.028;2022-07-29T06:27:51;3.67;;;1.13;;
40981;SDS011;26708;50.304;19.028;2022-07-29T06:30:52;5.90;;;1.40;;
40981;SDS011;26708;50.304;19.028;2022-07-29T06:33:53;3.42;;;1.27;;
40981;SDS011;26708;50.304;19.028;2022-07-29T06:36:54;4.47;;;1.27;;
40981;SDS011;26708;50.304;19.028;2022-07-29T06:39:55;6.88;;;1.27;;
40981;SDS011;26708;50.304;19.028;2022-07-29T06:43:24;6.55;;;1.30;;
40981;SDS011;26708;50.304;19.028;2022-07-29T06:46:26;4.63;;;1.38;;
40981;SDS011;26708;50.304;19.028;2022-07-29T06:49:28;4.85;;;1.77;;
40981;SDS011;26708;50.304;19.028;2022-07-29T06:52:29;8.68;;;1.60;;
40981;SDS011;26708;50.304;19.028;2022-07-29T06:55:30;4.05;;;1.75;;
40981;SDS011;26708;50.304;19.028;2022-07-29T06:58:30;5.13;;;1.65;;
40981;SDS011;26708;50.304;19.028;2022-07-29T07:01:31;7.13;;;1.13;;
40981;SDS011;26708;50.304;19.028;2022-07-29T07:04:33;5.40;;;1.50;;
40981;SDS011;26708;50.304;19.028;2022-07-29T07:07:34;4.75;;;1.27;;
40981;SDS011;26708;50.304;19.028;2022-07-29T07:10:34;4.93;;;1.52;;
40981;SDS011;26708;50.304;19.028;2022-07-29T07:13:35;3.10;;;1.30;;
40981;SDS011;26708;50.304;19.028;2022-07-29T07:16:36;7.97;;;1.65;;
40981;SDS011;26708;50.304;19.028;2022-07-29T07:19:37;12.32;;;1.70;;
40981;SDS011;26708;50.304;19.028;2022-07-29T07:22:37;4.53;;;1.35;;
40981;SDS011;26708;50.304;19.028;2022-07-29T07:25:39;3.45;;;1.50;;
40981;SDS011;26708;50.304;19.028;2022-07-29T07:28:40;1.40;;;0.90;;
40981;SDS011;26708;50.304;19.028;2022-07-29T07:31:40;4.57;;;1.50;;
40981;SDS011;26708;50.304;19.028;2022-07-29T07:34:42;4.60;;;1.70;;
40981;SDS011;26708;50.304;19.028;2022-07-29T07:37:43;5.32;;;1.50;;
40981;SDS011;26708;50.304;19.028;2022-07-29T07:40:44;5.30;;;1.52;;
40981;SDS011;26708;50.304;19.028;2022-07-29T07:43:48;5.72;;;1.85;;
40981;SDS011;26708;50.304;19.028;2022-07-29T07:46:49;4.93;;;1.13;;
40981;SDS011;26708;50.304;19.028;2022-07-29T07:49:50;3.38;;;1.60;;
40981;SDS011;26708;50.304;19.028;2022-07-29T07:52:52;8.73;;;1.60;;
40981;SDS011;26708;50.304;19.028;2022-07-29T07:55:55;3.47;;;1.30;;
40981;SDS011;26708;50.304;19.028;2022-07-29T07:58:56;2.22;;;1.40;;
40981;SDS011;26708;50.304;19.028;2022-07-29T08:01:56;3.72;;;1.77;;
40981;SDS011;26708;50.304;19.028;2022-07-29T08:04:57;4.53;;;1.60;;
40981;SDS011;26708;50.304;19.028;2022-07-29T08:07:59;8.82;;;1.65;;
40981;SDS011;26708;50.304;19.028;2022-07-29T08:11:00;7.35;;;1.40;;
40981;SDS011;26708;50.304;19.028;2022-07-29T08:14:02;9.52;;;1.50;;
40981;SDS011;26708;50.304;19.028;2022-07-29T08:17:03;5.35;;;1.20;;
40981;SDS011;26708;50.304;19.028;2022-07-29T08:20:05;4.30;;;1.65;;
40981;SDS011;26708;50.304;19.028;2022-07-29T08:23:07;1.95;;;1.23;;
40981;SDS011;26708;50.304;19.028;2022-07-29T08:26:11;5.67;;;1.30;;
40981;SDS011;26708;50.304;19.028;2022-07-29T08:29:13;5.40;;;1.20;;
40981;SDS011;26708;50.304;19.028;2022-07-29T08:32:14;6.35;;;1.48;;
40981;SDS011;26708;50.304;19.028;2022-07-29T08:35:14;1.95;;;1.10;;
40981;SDS011;26708;50.304;19.028;2022-07-29T08:38:15;6.28;;;1.52;;
40981;SDS011;26708;50.304;19.028;2022-07-29T08:41:18;3.88;;;1.30;;
40981;SDS011;26708;50.304;19.028;2022-07-29T08:44:20;3.63;;;1.45;;
40981;SDS011;26708;50.304;19.028;2022-07-29T08:47:22;5.88;;;1.50;;
40981;SDS011;26708;50.304;19.028;2022-07-29T08:50:23;2.63;;;1.45;;
40981;SDS011;26708;50.304;19.028;2022-07-29T08:53:26;3.50;;;1.40;;
40981;SDS011;26708;50.304;19.028;2022-07-29T08:56:28;4.45;;;1.50;;
40981;SDS011;26708;50.304;19.028;2022-07-29T08:59:30;4.70;;;1.52;;
40981;SDS011;26708;50.304;19.028;2022-07-29T09:02:36;5.15;;;1.73;;
40981;SDS011;26708;50.304;19.028;2022-07-29T09:05:44;3.92;;;1.55;;
40981;SDS011;26708;50.304;19.028;2022-07-29T09:08:46;3.72;;;1.40;;
40981;SDS011;26708;50.304;19.028;2022-07-29T09:11:47;5.82;;;1.80;;
40981;SDS011;26708;50.304;19.028;2022-07-29T09:14:48;5.97;;;1.50;;
40981;SDS011;26708;50.304;19.028;2022-07-29T09:17:49;6.90;;;1.63;;
40981;SDS011;26708;50.304;19.028;2022-07-29T09:20:53;3.53;;;1.70;;
40981;SDS011;26708;50.304;19.028;2022-07-29T09:24:13;3.40;;;1.70;;
40981;SDS011;26708;50.304;19.028;2022-07-29T09:27:21;4.25;;;1.48;;
40981;SDS011;26708;50.304;19.028;2022-07-29T09:30:50;2.67;;;1.35;;
40981;SDS011;26708;50.304;19.028;2022-07-29T09:34:04;4.10;;;1.60;;
40981;SDS011;26708;50.304;19.028;2022-07-29T09:37:25;2.75;;;1.52;;
40981;SDS011;26708;50.304;19.028;2022-07-29T09:40:28;3.80;;;1.58;;
40981;SDS011;26708;50.304;19.028;2022-07-29T09:43:31;7.82;;;1.80;;
40981;SDS011;26708;50.304;19.028;2022-07-29T09:46:32;6.65;;;1.50;;
40981;SDS011;26708;50.304;19.028;2022-07-29T10:02:32;2.97;;;1.50;;
40981;SDS011;26708;50.304;19.028;2022-07-29T10:05:35;5.43;;;1.30;;
40981;SDS011;26708;50.304;19.028;2022-07-29T10:08:37;4.15;;;1.50;;
40981;SDS011;26708;50.304;19.028;2022-07-29T10:11:38;7.82;;;1.70;;
40981;SDS011;26708;50.304;19.028;2022-07-29T10:14:40;4.55;;;1.50;;
40981;SDS011;26708;50.304;19.028;2022-07-29T10:17:43;6.78;;;1.77;;
40981;SDS011;26708;50.304;19.028;2022-07-29T10:20:46;3.83;;;1.48;;
40981;SDS011;26708;50.304;19.028;2022-07-29T10:23:47;2.25;;;1.52;;
40981;SDS011;26708;50.304;19.028;2022-07-29T10:26:50;3.60;;;1.50;;
40981;SDS011;26708;50.304;19.028;2022-07-29T10:29:54;6.32;;;2.08;;
40981;SDS011;26708;50.304;19.028;2022-07-29T10:43:25;5.45;;;1.60;;
40981;SDS011;26708;50.304;19.028;2022-07-29T10:46:34;6.88;;;1.80;;
40981;SDS011;26708;50.304;19.028;2022-07-29T10:49:37;5.63;;;1.40;;
40981;SDS011;26708;50.304;19.028;2022-07-29T10:55:52;2.30;;;1.38;;
40981;SDS011;26708;50.304;19.028;2022-07-29T11:05:52;2.88;;;1.40;;
40981;SDS011;26708;50.304;19.028;2022-07-29T11:15:52;7.32;;;1.90;;
40981;SDS011;26708;50.304;19.028;2022-07-29T11:22:32;8.32;;;1.67;;
40981;SDS011;26708;50.304;19.028;2022-07-29T11:25:34;4.38;;;1.30;;
40981;SDS011;26708;50.304;19.028;2022-07-29T11:28:48;6.00;;;1.83;;
40981;SDS011;26708;50.304;19.028;2022-07-29T11:31:51;3.40;;;1.77;;
40981;SDS011;26708;50.304;19.028;2022-07-29T11:38:29;2.72;;;1.52;;
40981;SDS011;26708;50.304;19.028;2022-07-29T11:41:36;3.78;;;1.58;;
40981;SDS011;26708;50.304;19.028;2022-07-29T11:48:17;9.00;;;1.70;;
40981;SDS011;26708;50.304;19.028;2022-07-29T11:51:20;5.32;;;1.75;;
40981;SDS011;26708;50.304;19.028;2022-07-29T11:54:28;6.60;;;2.08;;
40981;SDS011;26708;50.304;19.028;2022-07-29T11:57:35;5.40;;;1.50;;
40981;SDS011;26708;50.304;19.028;2022-07-29T12:00:39;3.35;;;1.67;;
40981;SDS011;26708;50.304;19.028;2022-07-29T12:03:42;8.50;;;1.80;;
40981;SDS011;26708;50.304;19.028;2022-07-29T12:06:48;8.13;;;1.38;;
40981;SDS011;26708;50.304;19.028;2022-07-29T12:09:53;5.95;;;1.60;;
40981;SDS011;26708;50.304;19.028;2022-07-29T12:12:58;2.33;;;1.63;;
40981;SDS011;26708;50.304;19.028;2022-07-29T12:16:00;4.88;;;1.60;;
40981;SDS011;26708;50.304;19.028;2022-07-29T12:19:02;6.85;;;1.58;;
40981;SDS011;26708;50.304;19.028;2022-07-29T12:22:05;4.07;;;1.70;;
40981;SDS011;26708;50.304;19.028;2022-07-29T12:25:07;6.80;;;2.45;;
40981;SDS011;26708;50.304;19.028;2022-07-29T12:28:11;2.53;;;1.50;;
40981;SDS011;26708;50.304;19.028;2022-07-29T12:31:14;7.67;;;1.70;;
40981;SDS011;26708;50.304;19.028;2022-07-29T12:34:16;4.35;;;1.63;;
40981;SDS011;26708;50.304;19.028;2022-07-29T12:37:17;6.15;;;1.60;;
40981;SDS011;26708;50.304;19.028;2022-07-29T12:40:18;4.03;;;1.80;;
40981;SDS011;26708;50.304;19.028;2022-07-29T12:43:22;4.18;;;1.73;;
40981;SDS011;26708;50.304;19.028;2022-07-29T12:46:27;2.85;;;1.58;;
40981;SDS011;26708;50.304;19.028;2022-07-29T12:49:29;5.95;;;1.75;;
40981;SDS011;26708;50.304;19.028;2022-07-29T12:52:31;4.97;;;1.92;;
40981;SDS011;26708;50.304;19.028;2022-07-29T12:55:42;4.53;;;1.70;;
40981;SDS011;26708;50.304;19.028;2022-07-29T12:58:49;3.25;;;1.60;;
40981;SDS011;26708;50.304;19.028;2022-07-29T13:01:50;5.40;;;1.80;;
40981;SDS011;26708;50.304;19.028;2022-07-29T13:04:59;8.32;;;1.92;;
40981;SDS011;26708;50.304;19.028;2022-07-29T13:08:12;4.30;;;1.85;;
40981;SDS011;26708;50.304;19.028;2022-07-29T13:11:31;6.80;;;1.70;;
40981;SDS011;26708;50.304;19.028;2022-07-29T13:14:34;7.35;;;1.75;;
40981;SDS011;26708;50.304;19.028;2022-07-29T13:17:39;5.28;;;1.98;;
40981;SDS011;26708;50.304;19.028;2022-07-29T13:20:43;3.95;;;1.92;;
40981;SDS011;26708;50.304;19.028;2022-07-29T13:23:44;2.72;;;1.80;;
40981;SDS011;26708;50.304;19.028;2022-07-29T13:26:45;5.95;;;2.28;;
40981;SDS011;26708;50.304;19.028;2022-07-29T13:29:46;3.60;;;1.85;;
40981;SDS011;26708;50.304;19.028;2022-07-29T13:32:47;4.43;;;1.55;;
40981;SDS011;26708;50.304;19.028;2022-07-29T13:35:49;4.10;;;1.67;;
40981;SDS011;26708;50.304;19.028;2022-07-29T13:38:50;2.67;;;1.45;;
40981;SDS011;26708;50.304;19.028;2022-07-29T13:41:52;5.00;;;1.73;;
40981;SDS011;26708;50.304;19.028;2022-07-29T13:44:53;4.25;;;2.17;;
40981;SDS011;26708;50.304;19.028;2022-07-29T13:47:55;3.22;;;1.50;;
40981;SDS011;26708;50.304;19.028;2022-07-29T13:50:56;5.05;;;1.88;;
40981;SDS011;26708;50.304;19.028;2022-07-29T13:53:57;3.58;;;1.80;;
40981;SDS011;26708;50.304;19.028;2022-07-29T13:56:58;3.60;;;1.65;;
40981;SDS011;26708;50.304;19.028;2022-07-29T14:00:00;4.22;;;1.77;;
40981;SDS011;26708;50.304;19.028;2022-07-29T14:03:09;3.33;;;1.70;;
40981;SDS011;26708;50.304;19.028;2022-07-29T14:06:10;3.60;;;1.83;;
40981;SDS011;26708;50.304;19.028;2022-07-29T14:09:15;2.35;;;1.67;;
40981;SDS011;26708;50.304;19.028;2022-07-29T14:12:17;4.85;;;1.73;;
40981;SDS011;26708;50.304;19.028;2022-07-29T14:15:19;4.03;;;1.80;;
40981;SDS011;26708;50.304;19.028;2022-07-29T14:18:21;4.00;;;1.65;;
40981;SDS011;26708;50.304;19.028;2022-07-29T14:21:22;7.03;;;1.92;;
40981;SDS011;26708;50.304;19.028;2022-07-29T14:24:25;5.13;;;1.88;;
40981;SDS011;26708;50.304;19.028;2022-07-29T14:27:26;7.20;;;1.90;;
40981;SDS011;26708;50.304;19.028;2022-07-29T14:30:27;6.10;;;2.05;;
40981;SDS011;26708;50.304;19.028;2022-07-29T14:33:29;7.38;;;1.67;;
40981;SDS011;26708;50.304;19.028;2022-07-29T14:36:29;2.83;;;1.52;;
40981;SDS011;26708;50.304;19.028;2022-07-29T14:39:31;5.72;;;2.00;;
40981;SDS011;26708;50.304;19.028;2022-07-29T14:42:32;5.75;;;2.42;;
40981;SDS011;26708;50.304;19.028;2022-07-29T14:45:34;4.60;;;1.98;;
40981;SDS011;26708;50.304;19.028;2022-07-29T14:48:35;5.43;;;1.88;;
40981;SDS011;26708;50.304;19.028;2022-07-29T14:51:37;6.88;;;1.65;;
40981;SDS011;26708;50.304;19.028;2022-07-29T14:54:37;4.20;;;1.70;;
40981;SDS011;26708;50.304;19.028;2022-07-29T14:57:39;4.30;;;2.33;;
40981;SDS011;26708;50.304;19.028;2022-07-29T15:00:40;4.82;;;1.80;;
40981;SDS011;26708;50.304;19.028;2022-07-29T15:03:42;4.82;;;1.67;;
40981;SDS011;26708;50.304;19.028;2022-07-29T15:06:43;8.20;;;2.90;;
40981;SDS011;26708;50.304;19.028;2022-07-29T15:09:44;3.58;;;1.90;;
40981;SDS011;26708;50.304;19.028;2022-07-29T15:12:46;7.07;;;1.92;;
40981;SDS011;26708;50.304;19.028;2022-07-29T15:15:47;4.20;;;2.20;;
40981;SDS011;26708;50.304;19.028;2022-07-29T15:18:47;6.93;;;1.73;;
40981;SDS011;26708;50.304;19.028;2022-07-29T15:21:48;4.20;;;1.80;;
40981;SDS011;26708;50.304;19.028;2022-07-29T15:24:49;6.10;;;1.90;;
40981;SDS011;26708;50.304;19.028;2022-07-29T15:27:50;4.28;;;1.80;;
40981;SDS011;26708;50.304;19.028;2022-07-29T15:30:51;6.00;;;2.50;;
40981;SDS011;26708;50.304;19.028;2022-07-29T15:33:51;3.70;;;2.10;;
40981;SDS011;26708;50.304;19.028;2022-07-29T15:36:52;2.58;;;1.77;;
40981;SDS011;26708;50.304;19.028;2022-07-29T15:39:53;5.55;;;2.08;;
40981;SDS011;26708;50.304;19.028;2022-07-29T15:42:54;4.78;;;1.88;;
40981;SDS011;26708;50.304;19.028;2022-07-29T15:45:56;3.85;;;2.00;;
40981;SDS011;26708;50.304;19.028;2022-07-29T15:49:15;3.47;;;1.92;;
40981;SDS011;26708;50.304;19.028;2022-07-29T15:52:17;4.47;;;2.30;;
40981;SDS011;26708;50.304;19.028;2022-07-29T15:55:19;6.97;;;2.33;;
40981;SDS011;26708;50.304;19.028;2022-07-29T15:58:20;3.92;;;2.17;;
40981;SDS011;26708;50.304;19.028;2022-07-29T16:01:22;5.15;;;2.25;;
40981;SDS011;26708;50.304;19.028;2022-07-29T16:04:24;4.60;;;2.67;;
40981;SDS011;26708;50.304;19.028;2022-07-29T16:07:24;7.30;;;2.50;;
40981;SDS011;26708;50.304;19.028;2022-07-29T16:10:26;7.78;;;2.40;;
40981;SDS011;26708;50.304;19.028;2022-07-29T16:13:27;6.18;;;2.60;;
40981;SDS011;26708;50.304;19.028;2022-07-29T16:16:29;5.85;;;2.50;;
40981;SDS011;26708;50.304;19.028;2022-07-29T16:19:31;2.90;;;2.00;;
40981;SDS011;26708;50.304;19.028;2022-07-29T16:22:31;6.78;;;2.17;;
40981;SDS011;26708;50.304;19.028;2022-07-29T16:25:32;6.30;;;2.35;;
40981;SDS011;26708;50.304;19.028;2022-07-29T16:28:34;6.07;;;2.40;;
40981;SDS011;26708;50.304;19.028;2022-07-29T16:31:35;5.57;;;2.40;;
40981;SDS011;26708;50.304;19.028;2022-07-29T16:34:36;8.23;;;2.30;;
40981;SDS011;26708;50.304;19.028;2022-07-29T16:37:37;8.20;;;2.65;;
40981;SDS011;26708;50.304;19.028;2022-07-29T16:40:39;7.35;;;2.47;;
40981;SDS011;26708;50.304;19.028;2022-07-29T16:47:17;9.43;;;2.38;;
40981;SDS011;26708;50.304;19.028;2022-07-29T16:50:24;11.57;;;2.42;;
40981;SDS011;26708;50.304;19.028;2022-07-29T16:53:51;5.68;;;2.45;;
40981;SDS011;26708;50.304;19.028;2022-07-29T16:56:58;10.23;;;2.28;;
40981;SDS011;26708;50.304;19.028;2022-07-29T17:00:01;7.50;;;2.50;;
40981;SDS011;26708;50.304;19.028;2022-07-29T17:03:04;10.27;;;2.58;;
40981;SDS011;26708;50.304;19.028;2022-07-29T17:06:07;5.38;;;2.25;;
40981;SDS011;26708;50.304;19.028;2022-07-29T17:09:17;5.45;;;2.28;;
40981;SDS011;26708;50.304;19.028;2022-07-29T17:12:18;7.93;;;2.13;;
40981;SDS011;26708;50.304;19.028;2022-07-29T17:15:18;5.72;;;2.35;;
40981;SDS011;26708;50.304;19.028;2022-07-29T17:18:19;7.03;;;2.80;;
40981;SDS011;26708;50.304;19.028;2022-07-29T17:21:21;4.45;;;2.22;;
40981;SDS011;26708;50.304;19.028;2022-07-29T17:24:25;5.85;;;2.42;;
40981;SDS011;26708;50.304;19.028;2022-07-29T17:27:26;4.10;;;2.50;;
40981;SDS011;26708;50.304;19.028;2022-07-29T17:30:27;7.28;;;2.90;;
40981;SDS011;26708;50.304;19.028;2022-07-29T17:33:29;5.60;;;2.58;;
40981;SDS011;26708;50.304;19.028;2022-07-29T17:36:30;9.43;;;5.40;;
40981;SDS011;26708;50.304;19.028;2022-07-29T17:39:32;7.88;;;3.50;;
40981;SDS011;26708;50.304;19.028;2022-07-29T17:42:34;6.88;;;2.90;;
40981;SDS011;26708;50.304;19.028;2022-07-29T17:45:36;7.95;;;3.05;;
40981;SDS011;26708;50.304;19.028;2022-07-29T17:48:37;5.13;;;2.83;;
40981;SDS011;26708;50.304;19.028;2022-07-29T17:51:39;6.03;;;2.88;;
40981;SDS011;26708;50.304;19.028;2022-07-29T17:54:42;9.93;;;2.97;;
40981;SDS011;26708;50.304;19.028;2022-07-29T17:57:43;6.72;;;2.72;;
40981;SDS011;26708;50.304;19.028;2022-07-29T18:00:46;4.60;;;2.72;;
40981;SDS011;26708;50.304;19.028;2022-07-29T18:03:49;6.20;;;3.72;;
40981;SDS011;26708;50.304;19.028;2022-07-29T18:06:53;10.48;;;4.07;;
40981;SDS011;26708;50.304;19.028;2022-07-29T18:09:55;5.50;;;3.65;;
40981;SDS011;26708;50.304;19.028;2022-07-29T18:12:58;6.32;;;2.72;;
40981;SDS011;26708;50.304;19.028;2022-07-29T18:16:00;5.10;;;3.25;;
40981;SDS011;26708;50.304;19.028;2022-07-29T18:19:04;5.45;;;2.88;;
40981;SDS011;26708;50.304;19.028;2022-07-29T18:22:13;3.75;;;2.72;;
40981;SDS011;26708;50.304;19.028;2022-07-29T18:25:14;6.32;;;2.90;;
40981;SDS011;26708;50.304;19.028;2022-07-29T18:28:15;4.97;;;2.58;;
40981;SDS011;26708;50.304;19.028;2022-07-29T18:31:17;5.63;;;2.60;;
40981;SDS011;26708;50.304;19.028;2022-07-29T18:34:18;4.00;;;2.70;;
40981;SDS011;26708;50.304;19.028;2022-07-29T18:37:20;2.13;;;1.83;;
40981;SDS011;26708;50.304;19.028;2022-07-29T18:40:22;5.18;;;2.58;;
40981;SDS011;26708;50.304;19.028;2022-07-29T18:43:26;5.53;;;2.35;;
40981;SDS011;26708;50.304;19.028;2022-07-29T18:46:35;3.40;;;2.15;;
40981;SDS011;26708;50.304;19.028;2022-07-29T18:49:39;4.32;;;2.50;;
40981;SDS011;26708;50.304;19.028;2022-07-29T18:53:11;4.63;;;2.50;;
40981;SDS011;26708;50.304;19.028;2022-07-29T18:56:12;4.03;;;2.30;;
40981;SDS011;26708;50.304;19.028;2022-07-29T18:59:17;3.28;;;2.30;;
40981;SDS011;26708;50.304;19.028;2022-07-29T19:02:51;3.17;;;2.17;;
40981;SDS011;26708;50.304;19.028;2022-07-29T19:05:56;6.20;;;3.10;;
40981;SDS011;26708;50.304;19.028;2022-07-29T19:08:58;4.60;;;2.55;;
40981;SDS011;26708;50.304;19.028;2022-07-29T19:11:59;4.25;;;2.50;;
40981;SDS011;26708;50.304;19.028;2022-07-29T19:15:00;6.72;;;2.83;;
40981;SDS011;26708;50.304;19.028;2022-07-29T19:18:02;4.35;;;2.53;;